METAR AND TAF INFORMATION
METAR FOR KPWK
ADDS - METARS form results

(1501 UTC 18 June 2019)
Data provider http://aviationweather.gov/metar/data/
 
METAR text: KPWK 181452Z VRB03KT 10SM BKN007 17/13 A2999 RMK AO2 CIG 006V010 SLP154 T01720133 55001
Conditions at: KPWK (PALWAUKEE , IL, US) observed 1452 UTC 18 June 2019
Temperature: 17.2°C (63°F)
Dewpoint: 13.3°C (56°F) [RH = 78%]
Pressure (altimeter): 29.99 inches Hg (1015.7 mb)
[Sea-level pressure: 1015.4 mb]
Winds: variable direction winds at 3 MPH (3 knots; 1.5 m/s)
Visibility: 10 or more miles (16+ km)
Ceiling: 700 feet AGL
Clouds: broken clouds at 700 feet AGL
Weather: no significant weather observed at this time

METAR text: KPWK 181441Z VRB03KT 10SM BKN005 17/14 A2999 RMK AO2 CIG 004V009 T01720139
Conditions at: KPWK (PALWAUKEE , IL, US) observed 1441 UTC 18 June 2019
Temperature: 17.2°C (63°F)
Dewpoint: 13.9°C (57°F) [RH = 81%]
Pressure (altimeter): 29.99 inches Hg (1015.7 mb)
Winds: variable direction winds at 3 MPH (3 knots; 1.5 m/s)
Visibility: 10 or more miles (16+ km)
Ceiling: 500 feet AGL
Clouds: broken clouds at 500 feet AGL
Weather: no significant weather observed at this time

METAR text: KPWK 181421Z 00000KT 9SM OVC004 16/13 A2998 RMK AO2 T01560133
Conditions at: KPWK (PALWAUKEE , IL, US) observed 1421 UTC 18 June 2019
Temperature: 15.6°C (60°F)
Dewpoint: 13.3°C (56°F) [RH = 86%]
Pressure (altimeter): 29.98 inches Hg (1015.3 mb)
Winds: calm
Visibility: 9 miles (14 km)
Ceiling: 400 feet AGL
Clouds: overcast cloud deck at 400 feet AGL
Weather: no significant weather observed at this time

 AIRPORT MAP

 RUNWAY INFORMATION
Runway 06 Runway length 3660 ft Runway width 50 ft
Runway elevation 647 ft Runway displaced threshold 354 ft Runway heading 63
Runway 24 Runway length 3660 ft Runway width 50 ft
Runway elevation 641 ft Runway displaced threshold 1251 ft Runway heading 243
Runway 12 Runway length 4386 ft Runway width 75 ft
Runway elevation 644 ft Runway displaced threshold 289 ft Runway heading 118
Runway 30 Runway length 4386 ft Runway width 75 ft
Runway elevation 640 ft Runway displaced threshold 433 ft Runway heading 298
Runway 16 Runway length 5000 ft Runway width 150 ft
Runway elevation 643 ft Runway displaced threshold 0 ft Runway heading 159
Runway 34 Runway length 5000 ft Runway width 150 ft
Runway elevation 645 ft Runway displaced threshold 0 ft Runway heading 339

 AIRPORT FREQUENCIES
Type A/D Name CHICAGO AP Frequency 120.55 MHZ
Type ATIS Name ATIS Frequency 124.2 MHZ
Type CLD Name CLNC DEL Frequency 124.7 MHZ
Type CTAF Name CTAF Frequency 119.9 MHZ
Type GND Name GND Frequency 121.7 MHZ
Type TWR Name TWR Frequency 119.9 MHZ
Type UNIC Name UNICOM Frequency 122.95 MHZ

 AIRPORT NEAR NAVIGATION AIDS


Powered by Virtual Airlines Manager